Time;durP1;ratioP1;P1;durP2;ratioP2;P2;SDS_P1;SDS_P2;PMS_P1;PMS_P2;Temp;Humidity;BMP_temperature;BMP_pressure;BME280_temperature;BME280_humidity;BME280_pressure;Samples;Min_cycle;Max_cycle;Signal;HPM_P1;HPM_P2
2021/08/22 00:01:22;;;;;;;6.23;5.30;;;23.10;99.90;;;;;;4996925;28;20463;-71
2021/08/22 00:03:48;;;;;;;5.83;5.27;;;23.10;99.90;;;;;;4998375;28;20544;-72
2021/08/22 00:06:13;;;;;;;6.17;5.67;;;23.00;99.90;;;;;;4974391;28;20240;-71
2021/08/22 00:08:39;;;;;;;5.77;5.27;;;23.00;99.90;;;;;;4979351;28;20325;-71
2021/08/22 00:11:05;;;;;;;5.40;4.90;;;22.90;99.90;;;;;;4992108;28;20232;-71
2021/08/22 00:13:31;;;;;;;5.27;4.77;;;22.80;99.90;;;;;;5003571;28;20452;-71
2021/08/22 00:15:57;;;;;;;5.03;4.53;;;22.80;99.90;;;;;;4995971;28;20233;-71
2021/08/22 00:18:23;;;;;;;4.50;4.10;;;22.70;99.90;;;;;;4973378;28;20453;-71
2021/08/22 00:20:48;;;;;;;4.60;4.10;;;22.70;99.90;;;;;;4988145;28;20303;-71
2021/08/22 00:23:14;;;;;;;4.57;4.17;;;22.70;99.90;;;;;;5003483;28;20667;-71
2021/08/22 00:25:40;;;;;;;5.00;4.47;;;22.70;99.90;;;;;;5003341;28;20595;-71
2021/08/22 00:28:05;;;;;;;4.40;4.00;;;22.80;99.90;;;;;;4982653;28;20240;-71
2021/08/22 00:30:31;;;;;;;5.30;4.80;;;22.80;99.90;;;;;;5001136;28;20234;-71
2021/08/22 00:32:56;;;;;;;4.60;4.20;;;22.80;99.90;;;;;;5003013;28;20294;-71
2021/08/22 00:35:23;;;;;;;5.67;4.40;;;22.80;99.90;;;;;;4984889;28;20262;-71
2021/08/22 00:37:49;;;;;;;5.43;4.83;;;22.70;99.90;;;;;;5005125;28;20229;-71
2021/08/22 00:40:14;;;;;;;8.80;4.50;;;22.80;99.90;;;;;;4985676;28;20460;-71
2021/08/22 00:42:40;;;;;;;5.73;4.93;;;22.80;99.90;;;;;;5004123;28;20300;-71
2021/08/22 00:45:07;;;;;;;4.97;4.47;;;22.70;99.90;;;;;;5002942;28;20229;-71
2021/08/22 00:47:36;;;;;;;5.03;4.63;;;22.70;99.90;;;;;;5003188;28;20710;-71
2021/08/22 00:50:02;;;;;;;6.00;5.50;;;22.70;99.90;;;;;;5001734;28;20475;-71
2021/08/22 00:52:33;;;;;;;4.80;4.40;;;22.70;99.90;;;;;;4985628;28;20457;-71
2021/08/22 00:55:01;;;;;;;5.33;4.83;;;22.70;99.90;;;;;;5002143;28;20580;-71
2021/08/22 00:57:27;;;;;;;4.67;4.27;;;22.60;99.90;;;;;;4983777;28;20472;-71
2021/08/22 00:59:53;;;;;;;5.27;4.30;;;22.60;99.90;;;;;;4989006;28;20464;-70
2021/08/22 01:02:29;;;;;;;5.17;4.67;;;22.60;99.90;;;;;;4985571;28;20366;-71
2021/08/22 01:05:17;;;;;;;5.33;4.03;;;22.60;99.90;;;;;;5002947;28;20224;-71
2021/08/22 01:08:14;;;;;;;4.33;3.93;;;22.50;99.90;;;;;;5037125;28;20464;-71
2021/08/22 01:10:43;;;;;;;4.20;3.80;;;22.40;99.90;;;;;;5003006;28;20480;-70
2021/08/22 01:13:13;;;;;;;6.97;4.23;;;22.30;99.90;;;;;;4982053;28;20465;-71
2021/08/22 01:15:43;;;;;;;4.40;3.50;;;22.20;99.90;;;;;;5002708;28;20462;-71
2021/08/22 01:18:13;;;;;;;4.23;3.83;;;22.20;99.90;;;;;;5001083;28;20461;-71
2021/08/22 01:20:49;;;;;;;4.30;3.37;;;22.10;99.90;;;;;;4983677;28;20451;-71
2021/08/22 01:23:15;;;;;;;5.03;3.60;;;22.10;99.90;;;;;;5000439;28;20495;-71
2021/08/22 01:25:43;;;;;;;5.83;4.70;;;22.10;99.90;;;;;;5003354;28;20907;-71
2021/08/22 01:28:10;;;;;;;5.30;3.87;;;22.00;99.90;;;;;;4980723;28;20217;-71
2021/08/22 01:30:41;;;;;;;5.10;3.80;;;22.00;99.90;;;;;;4986374;28;20560;-71
2021/08/22 01:33:12;;;;;;;5.57;4.50;;;21.90;99.90;;;;;;4985710;28;21011;-71
2021/08/22 01:35:38;;;;;;;4.40;4.00;;;22.00;99.90;;;;;;4986282;28;20476;-71
2021/08/22 01:38:04;;;;;;;4.10;3.70;;;21.90;99.90;;;;;;5001263;28;20487;-71
2021/08/22 01:40:31;;;;;;;4.87;4.03;;;21.90;99.90;;;;;;4984011;28;20871;-71
2021/08/22 01:42:58;;;;;;;4.57;4.10;;;21.90;99.90;;;;;;5000243;28;20464;-71
2021/08/22 01:45:25;;;;;;;4.93;4.53;;;21.90;99.90;;;;;;4997802;28;20480;-71
2021/08/22 01:47:51;;;;;;;4.10;3.23;;;21.80;99.90;;;;;;4986909;28;20491;-71
2021/08/22 01:50:18;;;;;;;3.93;3.57;;;21.80;99.90;;;;;;5001153;28;20475;-71
2021/08/22 01:52:44;;;;;;;4.33;3.40;;;21.70;99.90;;;;;;4983450;28;20468;-71
2021/08/22 01:55:10;;;;;;;7.40;3.50;;;21.60;99.90;;;;;;5000409;28;20539;-71
2021/08/22 01:57:44;;;;;;;4.13;3.73;;;21.50;99.90;;;;;;5003016;28;20472;-71
2021/08/22 02:00:10;;;;;;;4.93;3.20;;;21.40;99.90;;;;;;4985031;28;20468;-71
2021/08/22 02:02:46;;;;;;;4.60;3.40;;;21.40;99.90;;;;;;4986441;28;20468;-71
2021/08/22 02:05:13;;;;;;;4.07;3.70;;;21.30;99.90;;;;;;5000877;28;20479;-71
2021/08/22 02:07:39;;;;;;;3.30;3.00;;;21.40;99.90;;;;;;4986870;28;20850;-71
2021/08/22 02:10:14;;;;;;;4.07;3.30;;;21.40;99.90;;;;;;5000506;28;21021;-71
2021/08/22 02:12:40;;;;;;;8.47;3.50;;;21.40;99.90;;;;;;5002815;28;20455;-71
2021/08/22 02:15:14;;;;;;;4.50;4.10;;;21.20;99.90;;;;;;4984654;28;20918;-71
2021/08/22 02:17:55;;;;;;;4.13;3.63;;;21.30;99.90;;;;;;4986997;28;20532;-71
2021/08/22 02:20:22;;;;;;;4.20;3.80;;;21.20;99.90;;;;;;4983840;28;20459;-71
2021/08/22 02:22:49;;;;;;;5.30;3.67;;;21.20;99.90;;;;;;4983180;28;20505;-71
2021/08/22 02:25:16;;;;;;;3.57;3.27;;;21.20;99.90;;;;;;4997356;28;20476;-71
2021/08/22 02:27:42;;;;;;;5.90;4.10;;;21.10;99.90;;;;;;4996917;28;20471;-71
2021/08/22 02:30:09;;;;;;;3.60;3.30;;;21.10;99.90;;;;;;5003124;28;20476;-71
2021/08/22 02:32:34;;;;;;;4.07;3.50;;;21.00;99.90;;;;;;5005895;28;20544;-71
2021/08/22 02:35:00;;;;;;;5.30;3.83;;;20.90;99.90;;;;;;4987754;28;20906;-72
2021/08/22 02:37:28;;;;;;;3.90;3.50;;;20.90;99.90;;;;;;5005234;28;20236;-71
2021/08/22 02:39:53;;;;;;;3.83;3.53;;;20.90;99.90;;;;;;5006017;28;20605;-71
2021/08/22 02:42:19;;;;;;;4.77;3.77;;;20.70;99.90;;;;;;4984381;28;20465;-71
2021/08/22 02:44:45;;;;;;;4.73;3.70;;;20.70;99.90;;;;;;5007083;28;20722;-70
2021/08/22 02:47:11;;;;;;;5.20;4.50;;;20.70;99.90;;;;;;5003832;28;20765;-71
2021/08/22 02:49:37;;;;;;;3.63;3.30;;;20.70;99.90;;;;;;5005195;28;20256;-70
2021/08/22 02:52:03;;;;;;;3.37;3.07;;;20.60;99.90;;;;;;4984437;28;20230;-71
2021/08/22 02:54:29;;;;;;;4.17;3.80;;;20.60;99.90;;;;;;5006880;28;20468;-71
2021/08/22 02:56:55;;;;;;;5.73;4.03;;;20.60;99.90;;;;;;5001014;28;20542;-71
2021/08/22 02:59:21;;;;;;;7.10;4.53;;;20.50;99.90;;;;;;4987519;28;20226;-71
2021/08/22 03:01:46;;;;;;;4.00;3.60;;;20.60;99.90;;;;;;4989416;28;20225;-71
2021/08/22 03:04:12;;;;;;;4.73;3.77;;;20.60;99.90;;;;;;4986730;28;20698;-71
2021/08/22 03:06:38;;;;;;;4.00;3.60;;;20.50;99.90;;;;;;5005257;28;20213;-70
2021/08/22 03:09:04;;;;;;;4.37;3.80;;;20.50;99.90;;;;;;4987288;28;20513;-71
2021/08/22 03:11:31;;;;;;;4.33;3.10;;;20.50;99.90;;;;;;4988501;28;20213;-71
2021/08/22 03:13:56;;;;;;;4.57;3.40;;;20.40;99.90;;;;;;5005346;28;20229;-71
2021/08/22 03:16:23;;;;;;;5.13;3.60;;;20.40;99.90;;;;;;5004916;28;20501;-71
2021/08/22 03:18:49;;;;;;;6.10;3.73;;;20.30;99.90;;;;;;5004848;28;20217;-71
2021/08/22 03:21:14;;;;;;;4.47;3.03;;;20.30;99.90;;;;;;5013048;28;20981;-71
2021/08/22 03:23:40;;;;;;;4.07;3.23;;;20.30;99.90;;;;;;5005231;28;20221;-70
2021/08/22 03:26:05;;;;;;;4.03;3.33;;;20.20;99.90;;;;;;4987502;28;20281;-70
2021/08/22 03:28:31;;;;;;;4.53;4.00;;;20.20;99.90;;;;;;5004838;28;20593;-70
2021/08/22 03:30:57;;;;;;;4.20;3.53;;;20.10;99.90;;;;;;5006388;28;20236;-71
2021/08/22 03:33:22;;;;;;;4.70;3.97;;;20.10;99.90;;;;;;5003304;28;20308;-72
2021/08/22 03:35:48;;;;;;;3.87;3.00;;;20.00;99.90;;;;;;4988019;28;20240;-71
2021/08/22 03:38:14;;;;;;;5.87;4.30;;;20.00;99.90;;;;;;4983735;28;20260;-71
2021/08/22 03:40:40;;;;;;;4.07;3.67;;;19.90;99.90;;;;;;5001759;28;20229;-70
2021/08/22 03:43:06;;;;;;;3.60;3.20;;;20.00;99.90;;;;;;4999594;28;20469;-71
2021/08/22 03:45:31;;;;;;;4.23;3.20;;;20.00;99.90;;;;;;5003773;28;20607;-70
2021/08/22 03:47:57;;;;;;;4.80;4.03;;;20.10;99.90;;;;;;5004830;28;20247;-71
2021/08/22 03:50:23;;;;;;;5.83;3.20;;;20.20;99.90;;;;;;5003258;28;20312;-71
2021/08/22 03:52:51;;;;;;;5.50;3.83;;;20.10;99.90;;;;;;5003822;28;20221;-71
2021/08/22 03:55:18;;;;;;;5.47;4.03;;;20.10;99.90;;;;;;5002195;28;20834;-71
2021/08/22 03:57:44;;;;;;;4.07;3.67;;;20.10;99.90;;;;;;4984693;28;20479;-71
2021/08/22 04:00:10;;;;;;;5.00;3.73;;;20.00;99.90;;;;;;4990020;28;20492;-71
2021/08/22 04:02:39;;;;;;;4.27;3.87;;;20.00;99.90;;;;;;5020633;28;20223;-71
2021/08/22 04:05:40;;;;;;;5.40;3.87;;;19.90;99.90;;;;;;5004734;28;20467;-71
2021/08/22 04:08:06;;;;;;;4.43;3.90;;;20.00;99.90;;;;;;4982796;28;20470;-71
2021/08/22 04:10:31;;;;;;;4.07;3.53;;;19.90;99.90;;;;;;5003206;28;20247;-72
2021/08/22 04:12:57;;;;;;;6.67;4.80;;;19.90;99.90;;;;;;5004465;28;20221;-71
2021/08/22 04:15:23;;;;;;;5.30;4.80;;;19.80;99.90;;;;;;5002347;28;20690;-71
2021/08/22 04:17:50;;;;;;;5.17;4.67;;;19.80;99.90;;;;;;4988035;28;20255;-71
2021/08/22 04:20:16;;;;;;;4.77;4.27;;;19.80;99.90;;;;;;5002701;28;20986;-71
2021/08/22 04:22:42;;;;;;;8.00;4.80;;;19.80;99.90;;;;;;4983992;28;20489;-71
2021/08/22 04:25:10;;;;;;;6.67;4.80;;;19.80;99.90;;;;;;4998676;28;20301;-71
2021/08/22 04:27:37;;;;;;;5.73;4.67;;;19.80;99.90;;;;;;4984945;28;20481;-70
2021/08/22 04:30:03;;;;;;;5.30;4.80;;;19.70;99.90;;;;;;4999133;28;20483;-71
2021/08/22 04:32:29;;;;;;;6.87;4.60;;;19.70;99.90;;;;;;5003222;28;20527;-71
2021/08/22 04:34:54;;;;;;;5.60;4.33;;;19.70;99.90;;;;;;4987930;28;20217;-71
2021/08/22 04:37:20;;;;;;;5.37;4.43;;;19.70;99.90;;;;;;4986042;28;20738;-71
2021/08/22 04:39:46;;;;;;;5.23;4.73;;;19.60;99.90;;;;;;5003251;28;20721;-70
2021/08/22 04:42:11;;;;;;;4.70;3.87;;;19.60;99.90;;;;;;4985641;28;20232;-71
2021/08/22 04:44:37;;;;;;;7.70;4.93;;;19.60;99.90;;;;;;5003859;28;20252;-70
2021/08/22 04:47:05;;;;;;;6.23;4.50;;;19.60;99.90;;;;;;5002158;28;20236;-71
2021/08/22 04:49:31;;;;;;;4.60;4.20;;;19.50;99.90;;;;;;4987239;28;20256;-71
2021/08/22 04:51:57;;;;;;;11.37;4.90;;;19.50;99.90;;;;;;4983475;28;20888;-71
2021/08/22 04:54:23;;;;;;;5.33;4.83;;;19.50;99.90;;;;;;5000839;28;20464;-71
2021/08/22 04:56:49;;;;;;;4.97;4.43;;;19.50;99.90;;;;;;5003587;28;20225;-71
2021/08/22 04:59:14;;;;;;;5.43;4.13;;;19.50;99.90;;;;;;4984874;28;21020;-71
2021/08/22 05:01:40;;;;;;;5.47;4.57;;;19.40;99.90;;;;;;5001828;28;20619;-71
2021/08/22 05:04:06;;;;;;;7.27;4.40;;;19.40;99.90;;;;;;4982287;28;20230;-70
2021/08/22 05:06:31;;;;;;;5.73;4.40;;;19.40;99.90;;;;;;5000297;28;20224;-71
2021/08/22 05:08:57;;;;;;;5.70;4.50;;;19.30;99.90;;;;;;4996909;28;20218;-71
2021/08/22 05:11:23;;;;;;;8.23;4.60;;;19.30;99.90;;;;;;5001613;28;20312;-71
2021/08/22 05:13:48;;;;;;;6.20;4.83;;;19.30;99.90;;;;;;4987086;28;20266;-70
2021/08/22 05:16:14;;;;;;;6.10;4.90;;;19.30;99.90;;;;;;4985039;28;20251;-71
2021/08/22 05:18:39;;;;;;;6.60;3.77;;;19.30;99.90;;;;;;5004201;28;20236;-70
2021/08/22 05:21:05;;;;;;;7.27;4.50;;;19.40;99.90;;;;;;4982952;28;20229;-72
2021/08/22 05:23:31;;;;;;;7.97;4.73;;;19.40;99.90;;;;;;4985014;28;20217;-70
2021/08/22 05:25:57;;;;;;;7.63;4.87;;;19.40;99.90;;;;;;5003049;28;20247;-71
2021/08/22 05:28:23;;;;;;;5.33;4.33;;;19.40;99.90;;;;;;5002977;28;20452;-71
2021/08/22 05:30:48;;;;;;;5.73;5.23;;;19.40;99.90;;;;;;5003637;28;20614;-70
2021/08/22 05:33:14;;;;;;;5.33;4.60;;;19.40;99.90;;;;;;4981810;28;20226;-71
2021/08/22 05:35:40;;;;;;;8.27;5.30;;;19.40;99.90;;;;;;5003061;28;20304;-71
2021/08/22 05:38:07;;;;;;;5.83;5.17;;;19.40;99.90;;;;;;5001543;28;20225;-72
2021/08/22 05:40:36;;;;;;;5.73;5.13;;;19.40;99.90;;;;;;4986292;28;20539;-71
2021/08/22 05:43:02;;;;;;;5.13;4.47;;;19.40;99.90;;;;;;4981956;28;20465;-70
2021/08/22 05:45:28;;;;;;;6.07;5.47;;;19.40;99.90;;;;;;4984997;28;20468;-71
2021/08/22 05:47:53;;;;;;;6.13;5.20;;;19.40;99.90;;;;;;4985062;28;20469;-70
2021/08/22 05:50:19;;;;;;;6.23;4.47;;;19.50;99.90;;;;;;4999521;28;20233;-71
2021/08/22 05:52:45;;;;;;;6.33;5.50;;;19.50;99.90;;;;;;4983481;28;20218;-70
2021/08/22 05:55:11;;;;;;;8.43;5.73;;;19.50;99.90;;;;;;4981476;28;20233;-71
2021/08/22 05:57:37;;;;;;;7.63;5.77;;;19.50;99.90;;;;;;4999865;28;20233;-71
2021/08/22 06:00:05;;;;;;;6.70;4.93;;;19.50;99.90;;;;;;5007740;28;20275;-71
2021/08/22 06:02:38;;;;;;;7.60;6.20;;;19.50;99.90;;;;;;5003055;28;20219;-71
2021/08/22 06:05:08;;;;;;;6.30;5.33;;;19.50;99.90;;;;;;5002458;28;20979;-70
2021/08/22 06:07:33;;;;;;;5.10;4.57;;;19.50;99.90;;;;;;4989978;28;20539;-71
2021/08/22 06:09:59;;;;;;;7.67;5.70;;;19.50;99.90;;;;;;5005802;28;21081;-71
2021/08/22 06:12:25;;;;;;;8.20;6.23;;;19.50;99.90;;;;;;4987657;28;20349;-71
2021/08/22 06:14:51;;;;;;;8.47;5.60;;;19.50;99.90;;;;;;5006030;28;20217;-71
2021/08/22 06:17:17;;;;;;;11.63;5.70;;;19.60;99.90;;;;;;5003759;28;20848;-70
2021/08/22 06:19:42;;;;;;;6.30;5.40;;;19.60;99.90;;;;;;4982095;28;20253;-71
2021/08/22 06:22:08;;;;;;;8.90;5.83;;;19.60;99.90;;;;;;4992539;28;20730;-70
2021/08/22 06:24:34;;;;;;;6.60;5.47;;;19.60;99.90;;;;;;5004765;28;20229;-70
2021/08/22 06:27:01;;;;;;;7.40;5.90;;;19.70;99.90;;;;;;5006457;28;20319;-71
2021/08/22 06:29:26;;;;;;;7.80;7.10;;;19.70;99.90;;;;;;4989786;28;20875;-71
2021/08/22 06:31:53;;;;;;;7.27;6.17;;;19.70;99.90;;;;;;5001914;28;20464;-71
2021/08/22 06:34:18;;;;;;;6.97;5.93;;;19.70;99.90;;;;;;5003986;28;20263;-71
2021/08/22 06:36:45;;;;;;;8.57;5.87;;;19.80;99.90;;;;;;5006023;28;20467;-70
2021/08/22 06:39:12;;;;;;;9.60;6.77;;;19.80;99.90;;;;;;5004231;28;20221;-71
2021/08/22 06:41:38;;;;;;;5.70;5.10;;;19.80;99.90;;;;;;5005470;28;20448;-72
2021/08/22 06:44:04;;;;;;;6.47;5.80;;;19.90;99.90;;;;;;5005248;28;20464;-71
2021/08/22 06:46:30;;;;;;;6.30;5.50;;;19.90;99.90;;;;;;5039216;28;20471;-71
2021/08/22 06:48:55;;;;;;;7.40;6.13;;;19.90;99.90;;;;;;5003076;28;20225;-71
2021/08/22 06:51:21;;;;;;;6.90;6.20;;;19.90;99.90;;;;;;5000878;28;20225;-71
2021/08/22 06:53:47;;;;;;;7.20;5.80;;;19.90;99.90;;;;;;5006856;28;20229;-71
2021/08/22 06:56:12;;;;;;;6.70;5.70;;;20.00;99.90;;;;;;5003947;28;20233;-72
2021/08/22 06:58:38;;;;;;;8.87;6.80;;;20.00;99.90;;;;;;5000874;28;20270;-70
2021/08/22 07:01:07;;;;;;;8.80;6.50;;;20.00;99.90;;;;;;4987442;28;20221;-71
2021/08/22 07:03:33;;;;;;;11.17;5.53;;;20.10;99.90;;;;;;4989441;28;20232;-71
2021/08/22 07:05:58;;;;;;;7.60;5.80;;;20.10;99.90;;;;;;5004513;28;20476;-71
2021/08/22 07:08:24;;;;;;;7.17;6.10;;;20.10;99.90;;;;;;5003632;28;20224;-71
2021/08/22 07:10:50;;;;;;;6.60;5.90;;;20.20;99.90;;;;;;5005039;28;20233;-71
2021/08/22 07:13:15;;;;;;;8.47;5.80;;;20.20;99.90;;;;;;4994959;28;20217;-71
2021/08/22 07:15:41;;;;;;;6.70;6.00;;;20.20;99.90;;;;;;5001435;28;20585;-71
2021/08/22 07:18:07;;;;;;;8.20;5.83;;;20.20;99.90;;;;;;5000498;28;20623;-72
2021/08/22 07:20:32;;;;;;;7.57;6.77;;;20.30;99.90;;;;;;4993211;28;20218;-71
2021/08/22 07:22:58;;;;;;;8.17;6.17;;;20.30;99.90;;;;;;5004953;28;20221;-71
2021/08/22 07:25:24;;;;;;;6.20;5.60;;;20.30;99.90;;;;;;4986281;28;20695;-71
2021/08/22 07:27:50;;;;;;;6.83;6.10;;;20.30;99.90;;;;;;4985450;28;20229;-71
2021/08/22 07:30:16;;;;;;;6.43;5.83;;;20.30;99.90;;;;;;4999916;28;20465;-71
2021/08/22 07:32:42;;;;;;;8.83;5.87;;;20.40;99.90;;;;;;5002255;28;20457;-71
2021/08/22 07:35:08;;;;;;;8.10;5.40;;;20.40;99.90;;;;;;4996171;28;20502;-71
2021/08/22 07:37:34;;;;;;;6.17;4.67;;;20.40;99.90;;;;;;5004752;28;20216;-71
2021/08/22 07:40:00;;;;;;;5.83;5.23;;;20.40;99.90;;;;;;4987810;28;20973;-71
2021/08/22 07:42:25;;;;;;;7.13;5.83;;;20.40;99.90;;;;;;4985188;28;20218;-71
2021/08/22 07:44:51;;;;;;;7.03;6.10;;;20.50;99.90;;;;;;4984943;28;20598;-71
2021/08/22 07:47:17;;;;;;;5.97;5.37;;;20.50;99.90;;;;;;4983038;28;20241;-71
2021/08/22 07:49:43;;;;;;;6.73;5.70;;;20.50;99.90;;;;;;4985392;28;20237;-71
2021/08/22 07:52:08;;;;;;;9.27;6.17;;;20.50;99.90;;;;;;4991909;28;20217;-71
2021/08/22 07:54:34;;;;;;;7.10;6.07;;;20.50;99.90;;;;;;4985055;28;20234;-71
2021/08/22 07:57:00;;;;;;;6.40;5.80;;;20.60;99.90;;;;;;5001249;28;20230;-71
2021/08/22 07:59:28;;;;;;;6.60;5.97;;;20.60;99.90;;;;;;5022634;28;20217;-71
2021/08/22 08:01:53;;;;;;;7.10;5.77;;;20.60;99.90;;;;;;5007912;28;20456;-71
2021/08/22 08:04:19;;;;;;;7.27;6.53;;;20.60;99.90;;;;;;4986559;28;20229;-71
2021/08/22 08:06:45;;;;;;;7.07;5.90;;;20.60;99.90;;;;;;4998946;28;20221;-71
2021/08/22 08:09:11;;;;;;;5.63;5.13;;;20.70;99.90;;;;;;4982137;28;20249;-71
2021/08/22 08:11:37;;;;;;;5.30;4.80;;;20.70;99.90;;;;;;5003688;28;20551;-70
2021/08/22 08:14:02;;;;;;;8.63;5.10;;;20.80;99.90;;;;;;5026913;28;20682;-71
2021/08/22 08:16:30;;;;;;;6.03;5.20;;;20.80;99.90;;;;;;4992769;28;20210;-71
2021/08/22 08:18:56;;;;;;;6.60;4.90;;;20.80;99.90;;;;;;4987616;28;20468;-71
2021/08/22 08:21:22;;;;;;;6.50;5.20;;;20.80;99.90;;;;;;4996372;28;20540;-71
2021/08/22 08:23:47;;;;;;;5.70;4.80;;;20.80;99.90;;;;;;4979671;28;20303;-71
2021/08/22 08:26:13;;;;;;;5.07;4.60;;;20.80;99.90;;;;;;4980498;28;20226;-70
2021/08/22 08:28:40;;;;;;;5.33;4.70;;;20.90;99.90;;;;;;4994619;28;20224;-70
2021/08/22 08:31:05;;;;;;;7.03;4.20;;;20.90;99.90;;;;;;4993506;28;20240;-71
2021/08/22 08:33:32;;;;;;;5.33;4.47;;;20.90;99.90;;;;;;5003806;28;20849;-71
2021/08/22 08:35:58;;;;;;;5.33;4.83;;;20.90;99.90;;;;;;5017724;28;20505;-70
2021/08/22 08:38:24;;;;;;;4.63;4.20;;;20.90;99.90;;;;;;5053327;28;20554;-71
2021/08/22 08:40:50;;;;;;;5.33;4.83;;;21.00;99.90;;;;;;4998906;28;20533;-70
2021/08/22 08:43:17;;;;;;;4.70;4.30;;;21.00;99.90;;;;;;4989088;28;20304;-70
2021/08/22 08:45:59;;;;;;;5.87;4.63;;;21.00;99.90;;;;;;5000303;28;20225;-71
2021/08/22 08:48:44;;;;;;;6.87;4.97;;;21.00;99.90;;;;;;4999905;28;20471;-71
2021/08/22 08:51:32;;;;;;;10.77;5.00;;;21.00;99.90;;;;;;4994008;28;20475;-70
2021/08/22 08:54:31;;;;;;;4.87;4.47;;;21.10;99.90;;;;;;4990609;28;20522;-71
2021/08/22 08:56:58;;;;;;;4.50;4.10;;;21.10;99.90;;;;;;4991018;28;20469;-71
2021/08/22 08:59:24;;;;;;;11.20;5.20;;;21.10;99.90;;;;;;4979059;28;20969;-71
2021/08/22 09:01:52;;;;;;;5.80;5.20;;;21.10;99.90;;;;;;4993329;28;20494;-71
2021/08/22 09:04:27;;;;;;;7.23;4.57;;;21.10;99.90;;;;;;4979158;28;20221;-70
2021/08/22 09:07:23;;;;;;;5.77;5.23;;;21.20;99.90;;;;;;4996503;28;20493;-70
2021/08/22 09:10:35;;;;;;;7.10;5.83;;;21.20;99.90;;;;;;4987303;28;20555;-71
2021/08/22 09:13:38;;;;;;;4.43;3.87;;;21.20;99.90;;;;;;4978565;28;20452;-71
2021/08/22 09:16:22;;;;;;;4.83;4.43;;;21.30;99.90;;;;;;4977259;28;20460;-71
2021/08/22 09:19:15;;;;;;;5.43;4.50;;;21.30;99.90;;;;;;4988252;28;20468;-70
2021/08/22 09:21:59;;;;;;;4.67;4.27;;;21.30;99.90;;;;;;5000386;28;20884;-70
2021/08/22 09:24:31;;;;;;;7.43;4.20;;;21.30;99.90;;;;;;4985093;28;20452;-70
2021/08/22 09:27:44;;;;;;;4.40;3.77;;;21.30;99.90;;;;;;5007877;28;20476;-71
2021/08/22 09:30:38;;;;;;;4.83;4.40;;;21.30;99.90;;;;;;4996426;28;20475;-71
2021/08/22 09:33:41;;;;;;;5.93;4.73;;;21.40;99.90;;;;;;5006710;28;20455;-70
2021/08/22 09:36:26;;;;;;;5.00;4.50;;;21.40;99.90;;;;;;4989464;28;20973;-71
2021/08/22 09:39:30;;;;;;;5.03;4.30;;;21.40;99.90;;;;;;5022618;28;20462;-71
2021/08/22 09:42:23;;;;;;;5.77;5.27;;;21.40;99.90;;;;;;5016380;28;20515;-71
2021/08/22 09:45:26;;;;;;;4.93;4.37;;;21.50;99.90;;;;;;4990052;28;20470;-70
2021/08/22 09:48:17;;;;;;;6.37;4.63;;;21.50;99.90;;;;;;4986520;28;20460;-71
2021/08/22 09:51:02;;;;;;;6.07;4.20;;;21.50;99.90;;;;;;4987721;28;20471;-70
2021/08/22 09:54:01;;;;;;;8.10;5.03;;;21.50;99.90;;;;;;5020197;28;20482;-70
2021/08/22 09:57:04;;;;;;;5.83;5.27;;;21.60;99.90;;;;;;4980031;28;21000;-71
2021/08/22 09:59:48;;;;;;;4.97;4.47;;;21.60;99.90;;;;;;5005649;28;20974;-70
2021/08/22 10:02:51;;;;;;;5.07;4.60;;;21.70;99.90;;;;;;5000056;28;20447;-71
2021/08/22 10:05:53;;;;;;;5.30;4.17;;;21.70;99.90;;;;;;5016215;28;20523;-70
2021/08/22 10:08:30;;;;;;;5.80;4.73;;;21.80;99.90;;;;;;5004168;28;20460;-70
2021/08/22 10:11:02;;;;;;;6.10;5.50;;;21.80;99.90;;;;;;4994590;28;20485;-70
2021/08/22 10:13:31;;;;;;;8.00;5.20;;;21.80;99.90;;;;;;5005710;28;20455;-70
2021/08/22 10:15:57;;;;;;;7.33;4.80;;;21.90;99.90;;;;;;4998482;28;20464;-70
2021/08/22 10:18:26;;;;;;;5.13;4.63;;;21.90;99.90;;;;;;4987619;28;21037;-70
2021/08/22 10:21:00;;;;;;;7.10;6.40;;;21.90;99.90;;;;;;4985878;28;20469;-70
2021/08/22 10:23:38;;;;;;;5.83;5.23;;;22.00;99.90;;;;;;4979781;28;20467;-71
2021/08/22 10:26:05;;;;;;;5.90;5.30;;;22.00;99.90;;;;;;4999935;28;20468;-70
2021/08/22 10:28:47;;;;;;;7.80;6.03;;;22.00;99.90;;;;;;5000223;28;20488;-70
2021/08/22 10:31:13;;;;;;;6.23;5.50;;;22.00;99.90;;;;;;5000321;28;20556;-70
2021/08/22 10:34:18;;;;;;;6.27;5.40;;;22.00;99.90;;;;;;4993142;28;20464;-70
2021/08/22 10:36:44;;;;;;;5.77;5.23;;;22.00;99.90;;;;;;4994659;28;20472;-71
2021/08/22 10:39:27;;;;;;;6.60;5.80;;;22.00;99.90;;;;;;4999430;28;20476;-70
2021/08/22 10:42:20;;;;;;;6.30;5.53;;;22.00;99.90;;;;;;4986912;28;20746;-70
2021/08/22 10:44:47;;;;;;;6.17;5.57;;;22.10;99.90;;;;;;5004562;28;20466;-70
2021/08/22 10:47:19;;;;;;;7.07;6.17;;;22.10;99.90;;;;;;4983857;28;20839;-70
2021/08/22 10:49:54;;;;;;;5.90;5.30;;;22.20;99.90;;;;;;4984294;28;20480;-70
2021/08/22 10:52:35;;;;;;;7.33;5.47;;;22.20;99.90;;;;;;4982839;28;20467;-70
2021/08/22 10:55:10;;;;;;;5.60;5.00;;;22.30;99.90;;;;;;4986963;28;20444;-71
2021/08/22 10:57:42;;;;;;;5.60;5.00;;;22.30;99.90;;;;;;4989674;28;20508;-70
2021/08/22 11:00:25;;;;;;;6.13;5.20;;;22.30;99.90;;;;;;5002249;28;20455;-70
2021/08/22 11:03:05;;;;;;;5.23;4.73;;;22.30;99.90;;;;;;5002940;28;20462;-70
2021/08/22 11:05:35;;;;;;;4.23;3.80;;;22.30;99.90;;;;;;4992440;28;20609;-70
2021/08/22 11:08:21;;;;;;;4.90;3.57;;;22.30;99.90;;;;;;4991355;28;20460;-71
2021/08/22 11:11:00;;;;;;;4.00;3.60;;;22.30;99.90;;;;;;4991232;28;20471;-70
2021/08/22 11:13:35;;;;;;;4.37;3.53;;;22.20;99.90;;;;;;5016968;28;20455;-70
2021/08/22 11:16:02;;;;;;;3.20;2.97;;;22.20;99.90;;;;;;4984751;28;20512;-71
2021/08/22 11:18:28;;;;;;;3.67;3.37;;;22.20;99.90;;;;;;4993248;28;20452;-70
2021/08/22 11:20:53;;;;;;;3.50;3.20;;;22.20;99.90;;;;;;4997381;28;20455;-70
2021/08/22 11:23:19;;;;;;;4.20;3.80;;;22.30;99.90;;;;;;5006691;28;20726;-69
2021/08/22 11:25:46;;;;;;;3.43;3.13;;;22.30;99.90;;;;;;5002983;28;20645;-70
2021/08/22 11:28:19;;;;;;;3.40;3.10;;;22.40;99.90;;;;;;4997885;28;20212;-70
2021/08/22 11:30:46;;;;;;;4.00;3.60;;;22.60;99.90;;;;;;5005051;28;20486;-71
2021/08/22 11:33:12;;;;;;;4.43;3.53;;;22.70;99.90;;;;;;4995580;28;20464;-70
2021/08/22 11:35:41;;;;;;;3.73;3.43;;;22.60;99.90;;;;;;5006505;28;20467;-70
2021/08/22 11:38:07;;;;;;;3.77;3.47;;;22.60;99.90;;;;;;5012004;28;21003;-71
2021/08/22 11:40:34;;;;;;;4.70;4.17;;;22.60;99.90;;;;;;5009227;28;20971;-70
2021/08/22 11:43:06;;;;;;;3.63;3.33;;;22.50;99.90;;;;;;4995928;28;20839;-71
2021/08/22 11:45:42;;;;;;;3.90;3.60;;;22.50;99.90;;;;;;4990285;28;20466;-70
2021/08/22 11:48:14;;;;;;;4.20;3.80;;;22.50;99.90;;;;;;5006013;28;20833;-70
2021/08/22 11:50:40;;;;;;;3.83;3.43;;;22.50;99.90;;;;;;4996291;28;20564;-70
2021/08/22 11:53:08;;;;;;;4.70;4.20;;;22.40;99.90;;;;;;5009213;28;20465;-70
2021/08/22 11:55:38;;;;;;;5.43;3.60;;;22.40;99.90;;;;;;5006567;28;20877;-70
2021/08/22 11:58:14;;;;;;;3.67;3.37;;;22.30;99.90;;;;;;4995319;28;20459;-70
2021/08/22 12:00:45;;;;;;;3.23;2.97;;;22.20;99.90;;;;;;5001257;28;21004;-70
2021/08/22 12:03:13;;;;;;;4.20;3.90;;;22.10;99.90;;;;;;4993333;28;20455;-70
2021/08/22 12:06:00;;;;;;;4.83;3.90;;;22.10;99.90;;;;;;5007296;28;20459;-70
2021/08/22 12:08:27;;;;;;;3.90;2.67;;;22.10;99.90;;;;;;4988511;28;20463;-70
2021/08/22 12:11:13;;;;;;;8.30;3.47;;;22.10;99.90;;;;;;4999706;28;21016;-71
2021/08/22 12:13:41;;;;;;;2.67;2.47;;;22.10;99.90;;;;;;4998871;28;20458;-70
2021/08/22 12:16:23;;;;;;;2.63;2.33;;;22.10;99.90;;;;;;4995271;28;20459;-71
2021/08/22 12:18:48;;;;;;;3.77;2.10;;;22.20;99.90;;;;;;4996042;28;20582;-70
2021/08/22 12:21:18;;;;;;;2.07;1.97;;;22.20;99.90;;;;;;5001368;28;20534;-70
2021/08/22 12:23:49;;;;;;;2.60;2.40;;;22.30;99.90;;;;;;4983128;28;20227;-70
2021/08/22 12:26:29;;;;;;;2.40;2.20;;;22.40;99.90;;;;;;4992068;28;20463;-70
2021/08/22 12:28:59;;;;;;;2.73;2.40;;;22.50;99.90;;;;;;4977252;28;20475;-70
2021/08/22 12:31:33;;;;;;;2.07;1.97;;;22.60;99.90;;;;;;4995430;28;20968;-70
2021/08/22 12:34:02;;;;;;;2.60;1.93;;;22.70;99.90;;;;;;4991445;28;20468;-70
2021/08/22 12:36:45;;;;;;;2.80;2.37;;;22.80;99.90;;;;;;5013315;28;20466;-70
2021/08/22 12:39:12;;;;;;;2.67;2.47;;;22.90;99.90;;;;;;5000209;28;20876;-70
2021/08/22 12:41:48;;;;;;;3.03;2.30;;;23.00;99.90;;;;;;5003500;28;20460;-70
2021/08/22 12:44:25;;;;;;;1.90;1.80;;;23.10;99.90;;;;;;4995367;28;20537;-70
2021/08/22 12:47:00;;;;;;;2.57;2.37;;;23.20;99.90;;;;;;4977473;28;20858;-70
2021/08/22 12:49:26;;;;;;;2.37;2.27;;;23.20;99.90;;;;;;4993731;28;20458;-70
2021/08/22 12:51:54;;;;;;;3.17;2.87;;;23.30;99.90;;;;;;5001094;28;20994;-70
2021/08/22 12:54:21;;;;;;;3.10;2.80;;;23.40;99.90;;;;;;5009397;28;20451;-70
2021/08/22 12:56:48;;;;;;;3.47;2.37;;;23.30;99.90;;;;;;5008441;28;20603;-70
2021/08/22 12:59:13;;;;;;;2.60;2.10;;;23.30;99.90;;;;;;4994168;28;20971;-71
2021/08/22 13:01:40;;;;;;;3.00;2.50;;;23.20;99.90;;;;;;5011947;28;20456;-70